Stanley, Colorado
Current Conditions -  °F | °C
As of 2:52 PM on Friday 19 Dec 2014 (Local Time) from KALS Reporting Station
Clear Clear  
Wind Chill: 29°   Ceiling: Unl
Heat Index: 34°   Visibility: 10mi
Dew Point: 14°   Wind: 6mph
Humidity: 44%   Direction: 90°E
Pressure: 30.12"   Gusts: NA
Location:  37.469°N, 105.836°W
Report Text: KALS 192152Z AUTO 09005KT 10SM CLR 01/M10 A3012 RMK AO2 SLP237 T00111100 $
Loading
Personal Weather Stations






























Interactive Weather Map New forecast layout! Learn more

10-Day Weather Forecast

Advertisements
Track Severe Weather on mobile